Aérodrome :
LOGIN :

S'inscrire | Disclaimer

   EN    FR    IT 

 










Légende :    VFR   VFR Marginal   IFR   IFR Intensif   IFR Très Intensif
Visi : 
Plafond : 
>= 8 km
>= 3000ft
5 à 8 km
1000 à 3000 ft
1500m à 5 km
500 à 1000 ft
800 à 1500m
200 à 500 ft
< 800m
< 200 ft
Symboles :   Orages  Brouillard  Fortes neiges  Fortes précipitations  Vent > 20 kt
SIGMETs :   Divers  Orages  Givrage  Turbulence  Onde Orograph.  Cendres Volcan.







- Altitude de l'aérodrome : 499 ft
- Code IATA : TLS
- Voir les cartes d'approche


LFBO - Toulouse / Blagnac

DERNIER METAR :
  • 162130Z AUTO 12004KT 080V150 9999 SCT015 BKN028 BKN084 17/15 Q1019 BECMG 2000 BR OVC004

METARs EXPIRÉS :
  • 162100Z AUTO 14002KT 9999 BKN021 BKN029 BKN076 17/15 Q1019 BECMG 4000 BR BKN008
  • 162030Z AUTO 15003KT 9999 BKN021 BKN027 OVC038 17/15 Q1019 BECMG 4000 BR BKN008
  • 162000Z AUTO VRB02KT 9999 FEW017 BKN023 BKN029 18/14 Q1019 BECMG 4000 BR BKN008
  • 161930Z AUTO 17003KT 9999 FEW009 BKN017 BKN025 18/15 Q1019 BECMG 4000 BR BKN008
  • 161900Z AUTO 21003KT 9999 FEW008 SCT029 OVC088 18/14 Q1019 NOSIG

TAF TAF LFBO
Valide du 16 à 18h jusqu'au 18 à 00h UTC


161700Z 1618/1724 14006KT 9999 BKN025 BKN100
BECMG 1621/1623 4000 BR BKN008
BECMG 1623/1702 2000 OVC004
PROB40 1701/1708 0600 OVC002
BECMG 1708/1710 8000 NSW BKN008
BECMG 1710/1712 BKN012
BECMG 1712/1714 SCT016
BECMG 1719/1721 4000 BR
BECMG 1721/1724 0800 BCFG
ATIS : +33 5 62 74 66 36
Pas de NOTAMs connus pour ce terrain.



MET'MAP, la Météo Aéronautique d'un coup d'oeil ! - Copyright ORBIFLY Décembre 2007 - Disclaimer

ORBIFLY MET'MAP TEAM :

Programmation & Développement : Alexandra Zaïnal
Conception & Développement : Baudouin d'Aumeries
Co-Programmation & Développement : Marc-Olivier Méhu
Soutien technique & logistique : Manuel Goepfert

Contact : metmap@orbifly.com




SOURCES & CREDITS :

   NOAA